createdAt,value
2023-12-22T00:01:17.463Z,4.30
2023-12-22T00:04:21.463Z,2.75
2023-12-22T00:07:25.691Z,3.50
2023-12-22T00:10:29.632Z,3.90
2023-12-22T00:13:36.041Z,3.67
2023-12-22T00:16:40.840Z,4.20
2023-12-22T00:19:45.389Z,3.67
2023-12-22T00:22:49.650Z,4.30
2023-12-22T00:25:54.225Z,4.80
2023-12-22T00:28:58.548Z,4.60
2023-12-22T00:32:02.171Z,5.10
2023-12-22T00:35:07.546Z,4.68
2023-12-22T00:38:12.314Z,4.70
2023-12-22T00:41:16.527Z,5.60
2023-12-22T00:44:20.206Z,4.35
2023-12-22T00:47:25.538Z,3.45
2023-12-22T00:50:29.867Z,3.35
2023-12-22T00:53:33.529Z,4.97
2023-12-22T00:56:37.417Z,3.87
2023-12-22T00:59:47.268Z,2.72
2023-12-22T01:02:51.084Z,2.85
2023-12-22T01:05:55.707Z,3.62
2023-12-22T01:09:00.030Z,3.10
2023-12-22T01:12:08.141Z,1.90
2023-12-22T01:15:12.496Z,3.20
2023-12-22T01:18:16.850Z,2.67
2023-12-22T01:21:21.545Z,2.83
2023-12-22T01:24:25.838Z,2.97
2023-12-22T01:27:30.113Z,2.40
2023-12-22T01:30:34.076Z,3.15
2023-12-22T01:33:39.269Z,3.00
2023-12-22T01:36:42.055Z,3.55
2023-12-22T01:39:44.483Z,3.67
2023-12-22T01:42:47.678Z,3.33
2023-12-22T01:45:53.755Z,2.78
2023-12-22T01:48:56.033Z,2.90
2023-12-22T01:51:58.768Z,3.30
2023-12-22T01:55:00.980Z,2.83
2023-12-22T01:58:03.428Z,2.73
2023-12-22T02:01:05.985Z,3.58
2023-12-22T02:04:08.602Z,2.65
2023-12-22T02:07:11.972Z,2.72
2023-12-22T02:10:14.509Z,2.83
2023-12-22T02:13:17.115Z,2.40
2023-12-22T02:16:46.110Z,2.33
2023-12-22T02:19:49.321Z,2.60
2023-12-22T02:22:55.063Z,1.92
2023-12-22T02:26:07.617Z,1.83
2023-12-22T02:29:11.917Z,1.33
2023-12-22T02:32:24.480Z,1.80
2023-12-22T02:35:29.351Z,1.67
2023-12-22T02:38:32.875Z,1.40
2023-12-22T02:41:36.164Z,1.10
2023-12-22T02:44:39.401Z,1.60
2023-12-22T02:47:41.973Z,1.48
2023-12-22T02:50:44.461Z,1.67
2023-12-22T02:53:46.607Z,1.67
2023-12-22T02:56:49.117Z,2.00
2023-12-22T02:59:51.465Z,2.10
2023-12-22T03:02:53.963Z,1.85
2023-12-22T03:05:56.192Z,1.62
2023-12-22T03:08:58.504Z,2.10
2023-12-22T03:12:03.175Z,2.27
2023-12-22T03:15:06.529Z,2.37
2023-12-22T03:18:08.735Z,1.92
2023-12-22T03:21:18.409Z,2.40
2023-12-22T03:27:40.189Z,2.20
2023-12-22T03:30:42.727Z,2.27
2023-12-22T03:33:44.886Z,2.50
2023-12-22T03:36:50.609Z,2.17
2023-12-22T03:39:53.162Z,2.28
2023-12-22T03:42:55.374Z,1.83
2023-12-22T03:45:57.802Z,2.60
2023-12-22T03:49:00.348Z,2.42
2023-12-22T03:52:02.996Z,2.30
2023-12-22T03:55:05.458Z,2.65
2023-12-22T03:58:08.963Z,2.50
2023-12-22T04:01:15.956Z,3.07
2023-12-22T04:04:18.452Z,2.33
2023-12-22T04:07:20.560Z,2.58
2023-12-22T04:10:23.011Z,2.65
2023-12-22T04:13:25.274Z,2.70
2023-12-22T04:16:27.754Z,2.83
2023-12-22T04:19:30.008Z,2.78
2023-12-22T04:22:32.321Z,3.10
2023-12-22T04:25:34.811Z,3.37
2023-12-22T04:28:37.720Z,2.57
2023-12-22T04:31:40.176Z,2.20
2023-12-22T04:34:42.426Z,2.55
2023-12-22T04:37:44.612Z,3.10
2023-12-22T04:40:47.069Z,2.50
2023-12-22T04:43:49.352Z,4.20
2023-12-22T04:46:52.321Z,3.00
2023-12-22T04:49:54.547Z,3.40
2023-12-22T04:52:57.052Z,5.37
2023-12-22T04:56:00.109Z,4.15
2023-12-22T04:59:02.750Z,4.00
2023-12-22T05:02:05.247Z,4.10
2023-12-22T05:05:10.021Z,2.97
2023-12-22T05:08:12.465Z,2.58
2023-12-22T05:11:14.891Z,2.33
2023-12-22T05:14:17.484Z,2.10
2023-12-22T05:17:19.919Z,2.03
2023-12-22T05:20:22.093Z,2.37
2023-12-22T05:23:24.161Z,2.60
2023-12-22T05:26:29.265Z,2.08
2023-12-22T05:29:31.689Z,2.37
2023-12-22T05:32:34.348Z,1.60
2023-12-22T05:35:40.465Z,2.85
2023-12-22T05:38:43.463Z,2.90
2023-12-22T05:41:45.858Z,3.37
2023-12-22T05:44:51.051Z,3.30
2023-12-22T05:47:53.807Z,3.07
2023-12-22T05:50:59.228Z,2.37
2023-12-22T05:54:02.205Z,2.60
2023-12-22T05:57:08.750Z,2.90
2023-12-22T06:00:12.544Z,2.13
2023-12-22T06:03:15.511Z,2.40
2023-12-22T06:06:18.130Z,2.40
2023-12-22T06:09:22.147Z,2.55
2023-12-22T06:12:24.564Z,2.22
2023-12-22T06:15:27.207Z,1.67
2023-12-22T06:18:29.372Z,0.90
2023-12-22T06:21:31.603Z,1.80
2023-12-22T06:24:36.242Z,1.67
2023-12-22T06:27:38.582Z,2.08
2023-12-22T06:30:40.776Z,1.70
2023-12-22T06:33:43.355Z,1.80
2023-12-22T06:36:45.955Z,1.70
2023-12-22T06:39:48.405Z,1.85
2023-12-22T06:42:50.783Z,1.95
2023-12-22T06:45:56.446Z,1.60
2023-12-22T06:48:59.625Z,2.00
2023-12-22T06:52:02.877Z,1.90
2023-12-22T06:55:05.406Z,1.73
2023-12-22T06:58:07.693Z,1.90
2023-12-22T07:01:10.307Z,1.70
2023-12-22T07:04:12.755Z,3.60
2023-12-22T07:07:15.138Z,3.53
2023-12-22T07:10:17.841Z,2.65
2023-12-22T07:13:20.049Z,2.92
2023-12-22T07:16:22.300Z,2.17
2023-12-22T07:19:24.846Z,2.13
2023-12-22T07:22:27.485Z,3.20
2023-12-22T07:25:31.066Z,2.47
2023-12-22T07:28:34.070Z,4.32
2023-12-22T07:31:36.731Z,3.30
2023-12-22T07:34:39.173Z,2.73
2023-12-22T07:37:41.727Z,2.42
2023-12-22T07:40:44.280Z,3.42
2023-12-22T07:43:46.661Z,2.75
2023-12-22T07:46:58.987Z,2.90
2023-12-22T07:50:02.830Z,3.37
2023-12-22T07:53:08.109Z,3.25
2023-12-22T07:56:12.853Z,4.32
2023-12-22T07:59:23.642Z,2.40
2023-12-22T08:02:32.726Z,1.80
2023-12-22T08:05:35.224Z,0.70
2023-12-22T08:08:37.967Z,2.97
2023-12-22T08:11:40.434Z,2.67
2023-12-22T08:14:42.942Z,2.45
2023-12-22T08:17:51.742Z,2.87
2023-12-22T08:20:54.499Z,2.30
2023-12-22T08:23:56.991Z,2.37
2023-12-22T08:26:59.308Z,1.25
2023-12-22T08:30:01.762Z,1.80
2023-12-22T08:33:04.308Z,1.37
2023-12-22T08:36:07.077Z,1.10
2023-12-22T08:39:09.890Z,0.40
2023-12-22T08:42:13.546Z,0.90
2023-12-22T08:45:15.894Z,0.70
2023-12-22T08:48:18.242Z,0.90
2023-12-22T08:51:20.616Z,0.97
2023-12-22T08:54:22.830Z,0.95
2023-12-22T08:57:25.300Z,0.77
2023-12-22T09:00:27.791Z,0.90
2023-12-22T09:03:31.551Z,0.80
2023-12-22T09:06:34.847Z,0.70
2023-12-22T09:09:37.239Z,0.80
2023-12-22T09:12:39.367Z,1.87
2023-12-22T09:15:42.776Z,1.90
2023-12-22T09:18:46.359Z,2.30
2023-12-22T09:21:49.093Z,1.70
2023-12-22T09:24:51.503Z,2.30
2023-12-22T09:27:54.005Z,2.40
2023-12-22T09:30:56.225Z,2.50
2023-12-22T09:33:58.835Z,2.47
2023-12-22T09:37:01.936Z,3.30
2023-12-22T09:40:04.640Z,3.30
2023-12-22T09:43:08.446Z,3.40
2023-12-22T09:46:13.094Z,3.35
2023-12-22T09:49:16.252Z,2.90
2023-12-22T09:52:19.073Z,2.73
2023-12-22T09:55:25.087Z,2.83
2023-12-22T09:58:27.650Z,2.87
2023-12-22T10:01:31.159Z,12.80
2023-12-22T10:04:33.749Z,3.10
2023-12-22T10:07:37.100Z,3.27
2023-12-22T10:10:46.901Z,3.15
2023-12-22T10:13:52.178Z,4.07
2023-12-22T10:16:54.453Z,4.05
2023-12-22T10:19:56.669Z,4.27
2023-12-22T10:22:59.227Z,4.53
2023-12-22T10:26:01.961Z,3.37
2023-12-22T10:29:04.868Z,3.47
2023-12-22T10:32:08.945Z,3.33
2023-12-22T10:35:11.520Z,3.90
2023-12-22T10:38:13.837Z,4.57
2023-12-22T10:41:16.733Z,5.40
2023-12-22T10:44:19.408Z,5.05
2023-12-22T10:47:22.925Z,4.05
2023-12-22T10:50:26.120Z,4.47
2023-12-22T10:53:28.314Z,4.83
2023-12-22T10:56:31.391Z,4.80
2023-12-22T10:59:40.561Z,4.90
2023-12-22T11:02:44.299Z,5.22
2023-12-22T11:05:49.361Z,5.40
2023-12-22T11:08:54.659Z,5.77
2023-12-22T11:11:58.640Z,4.82
2023-12-22T11:15:01.624Z,4.25
2023-12-22T11:18:06.884Z,5.18
2023-12-22T11:21:11.361Z,5.17
2023-12-22T11:24:15.473Z,5.43
2023-12-22T11:27:22.000Z,7.15
2023-12-22T11:30:26.610Z,5.93
2023-12-22T11:33:31.012Z,3.83
2023-12-22T11:36:34.347Z,3.43
2023-12-22T11:39:36.626Z,4.10
2023-12-22T11:42:46.676Z,2.25
2023-12-22T11:45:51.560Z,2.97
2023-12-22T11:48:54.505Z,2.62
2023-12-22T11:51:59.613Z,1.80
2023-12-22T11:55:02.077Z,1.20
2023-12-22T11:58:42.677Z,1.40
2023-12-22T12:01:45.208Z,1.75
2023-12-22T12:04:49.431Z,1.20
2023-12-22T12:07:52.437Z,0.93
2023-12-22T12:10:55.853Z,1.37
2023-12-22T12:14:13.058Z,1.67
2023-12-22T12:17:20.000Z,1.50
2023-12-22T12:20:23.498Z,1.27
2023-12-22T12:23:27.486Z,1.40
2023-12-22T12:26:30.976Z,1.00
2023-12-22T12:29:34.703Z,1.60
2023-12-22T12:32:37.671Z,1.10
2023-12-22T12:35:44.118Z,1.20
2023-12-22T12:38:59.682Z,1.80
2023-12-22T12:42:05.428Z,1.87
2023-12-22T12:45:09.500Z,3.12
2023-12-22T12:48:12.243Z,3.65
2023-12-22T12:51:14.612Z,4.40
2023-12-22T12:54:17.043Z,2.83
2023-12-22T12:57:20.114Z,6.40
2023-12-22T13:00:29.835Z,4.95
2023-12-22T13:03:32.381Z,4.12
2023-12-22T13:06:35.161Z,3.58
2023-12-22T13:09:37.717Z,3.37
2023-12-22T13:12:40.233Z,2.93
2023-12-22T13:15:42.973Z,3.00
2023-12-22T13:18:45.642Z,3.10
2023-12-22T13:21:48.683Z,5.12
2023-12-22T13:25:00.854Z,2.90
2023-12-22T13:28:04.015Z,2.57
2023-12-22T13:31:15.123Z,3.05
2023-12-22T13:34:17.731Z,3.03
2023-12-22T13:37:20.861Z,2.67
2023-12-22T13:40:23.973Z,5.33
2023-12-22T13:43:30.239Z,8.17
2023-12-22T13:46:33.501Z,6.90
2023-12-22T13:49:35.815Z,6.60
2023-12-22T13:52:38.157Z,5.20
2023-12-22T13:55:41.279Z,2.60
2023-12-22T13:58:48.359Z,1.93
2023-12-22T14:01:50.632Z,1.30
2023-12-22T14:04:53.526Z,1.10
2023-12-22T14:07:56.389Z,0.70
2023-12-22T14:10:58.765Z,0.40
2023-12-22T14:14:01.264Z,0.33
2023-12-22T14:17:03.815Z,0.20
2023-12-22T14:20:08.127Z,0.40
2023-12-22T14:23:14.657Z,0.20
2023-12-22T14:26:18.183Z,0.40
2023-12-22T14:29:20.627Z,0.13
2023-12-22T14:32:23.941Z,0.20
2023-12-22T14:35:26.190Z,0.35
2023-12-22T14:38:28.751Z,0.32
2023-12-22T14:41:31.022Z,0.20
2023-12-22T14:44:33.578Z,0.20
2023-12-22T14:47:36.921Z,0.30
2023-12-22T14:50:39.241Z,0.10
2023-12-22T14:53:41.425Z,0.20
2023-12-22T14:56:43.665Z,0.30
2023-12-22T14:59:46.993Z,0.20
2023-12-22T15:02:49.830Z,0.30
2023-12-22T15:05:52.753Z,0.20
2023-12-22T15:08:56.482Z,0.20
2023-12-22T15:11:58.599Z,0.20
2023-12-22T15:15:00.880Z,0.20
2023-12-22T15:18:03.576Z,0.20
2023-12-22T15:21:22.837Z,0.20
2023-12-22T15:24:25.419Z,0.47
2023-12-22T15:27:29.089Z,0.20
2023-12-22T15:30:34.483Z,0.23
2023-12-22T15:33:38.866Z,0.65
2023-12-22T15:36:43.512Z,0.30
2023-12-22T15:39:48.359Z,0.55
2023-12-22T15:42:53.302Z,0.23
2023-12-22T15:45:58.007Z,0.63
2023-12-22T15:49:02.605Z,0.70
2023-12-22T15:52:07.096Z,0.30
2023-12-22T15:55:11.264Z,0.40
2023-12-22T15:58:15.452Z,0.37
2023-12-22T16:01:20.416Z,0.50
2023-12-22T16:04:24.445Z,0.40
2023-12-22T16:07:28.896Z,0.40
2023-12-22T16:10:32.666Z,0.50
2023-12-22T16:13:37.008Z,0.20
2023-12-22T16:16:41.458Z,0.53
2023-12-22T16:19:46.283Z,0.57
2023-12-22T16:22:51.739Z,0.65
2023-12-22T16:25:57.829Z,0.50
2023-12-22T16:29:01.716Z,0.90
2023-12-22T16:32:07.583Z,0.70
2023-12-22T16:35:12.202Z,1.02
2023-12-22T16:38:18.317Z,0.93
2023-12-22T16:41:22.794Z,0.80
2023-12-22T16:44:27.124Z,0.53
2023-12-22T16:47:33.186Z,0.60
2023-12-22T16:50:37.214Z,1.20
2023-12-22T16:53:41.814Z,1.33
2023-12-22T16:56:45.615Z,1.40
2023-12-22T16:59:49.361Z,0.90
2023-12-22T17:02:53.915Z,0.90
2023-12-22T17:05:58.311Z,0.70
2023-12-22T17:09:03.170Z,0.70
2023-12-22T17:12:07.459Z,0.70
2023-12-22T17:15:12.712Z,0.70
2023-12-22T17:18:16.997Z,0.80
2023-12-22T17:21:21.258Z,0.95
2023-12-22T17:24:25.178Z,0.88
2023-12-22T17:27:29.293Z,1.45
2023-12-22T17:30:33.791Z,1.10
2023-12-22T17:33:40.431Z,1.17
2023-12-22T17:36:44.657Z,1.20
2023-12-22T17:39:48.955Z,2.97
2023-12-22T17:42:52.951Z,1.70
2023-12-22T17:45:56.987Z,2.03
2023-12-22T17:49:01.158Z,1.60
2023-12-22T17:52:06.857Z,1.00
2023-12-22T17:55:11.912Z,2.25
2023-12-22T17:58:16.278Z,2.47
2023-12-22T18:01:20.901Z,1.80
2023-12-22T18:04:27.757Z,2.47
2023-12-22T18:07:31.678Z,2.95
2023-12-22T18:10:36.177Z,2.87
2023-12-22T18:13:40.655Z,4.68
2023-12-22T18:16:45.661Z,3.63
2023-12-22T18:19:50.136Z,3.10
2023-12-22T18:22:54.497Z,3.53
2023-12-22T18:25:58.917Z,3.70
2023-12-22T18:29:03.343Z,3.80
2023-12-22T18:32:07.620Z,4.80
2023-12-22T18:35:13.460Z,3.30
2023-12-22T18:38:16.859Z,4.47
2023-12-22T18:41:21.204Z,5.18
2023-12-22T18:44:25.235Z,3.97
2023-12-22T18:47:31.489Z,3.73
2023-12-22T18:50:35.533Z,3.60
2023-12-22T18:53:39.983Z,2.50
2023-12-22T18:56:45.128Z,2.72
2023-12-22T18:59:51.321Z,2.37
2023-12-22T19:02:59.029Z,2.23
2023-12-22T19:06:02.454Z,1.57
2023-12-22T19:09:04.913Z,1.98
2023-12-22T19:12:07.625Z,3.28
2023-12-22T19:15:10.439Z,3.85
2023-12-22T19:18:13.276Z,3.40
2023-12-22T19:21:18.763Z,1.57
2023-12-22T19:24:21.286Z,1.67
2023-12-22T19:27:23.614Z,1.10
2023-12-22T19:30:25.911Z,0.80
2023-12-22T19:33:28.407Z,0.50
2023-12-22T19:36:31.229Z,0.67
2023-12-22T19:39:33.380Z,0.90
2023-12-22T19:42:36.178Z,0.47
2023-12-22T19:45:38.459Z,0.80
2023-12-22T19:48:41.958Z,0.87
2023-12-22T19:51:44.907Z,0.90
2023-12-22T19:54:47.633Z,0.40
2023-12-22T19:57:50.712Z,0.68
2023-12-22T20:00:53.853Z,0.60
2023-12-22T20:03:56.562Z,1.20
2023-12-22T20:06:59.686Z,0.90
2023-12-22T20:10:04.793Z,0.73
2023-12-22T20:13:07.455Z,0.37
2023-12-22T20:16:12.735Z,0.40
2023-12-22T20:19:15.797Z,0.47
2023-12-22T20:22:18.978Z,0.47
2023-12-22T20:25:22.427Z,0.55
2023-12-22T20:28:26.922Z,0.30
2023-12-22T20:31:29.805Z,0.70
2023-12-22T20:34:32.411Z,0.40
2023-12-22T20:37:34.690Z,0.63
2023-12-22T20:40:36.899Z,0.70
2023-12-22T20:43:39.155Z,0.75
2023-12-22T20:46:41.873Z,1.37
2023-12-22T20:49:44.155Z,1.10
2023-12-22T20:52:50.868Z,0.50
2023-12-22T20:55:53.537Z,0.40
2023-12-22T20:58:57.187Z,0.45
2023-12-22T21:01:59.864Z,0.47
2023-12-22T21:05:02.434Z,0.93
2023-12-22T21:08:05.319Z,0.20
2023-12-22T21:11:08.687Z,0.80
2023-12-22T21:14:11.467Z,0.73
2023-12-22T21:17:13.917Z,0.35
2023-12-22T21:20:17.018Z,0.70
2023-12-22T21:23:19.944Z,0.47
2023-12-22T21:26:22.714Z,0.22
2023-12-22T21:29:25.210Z,0.37
2023-12-22T21:32:29.059Z,0.30
2023-12-22T21:35:31.319Z,0.40
2023-12-22T21:38:34.093Z,0.60
2023-12-22T21:41:36.273Z,0.60
2023-12-22T21:44:42.528Z,0.32
2023-12-22T21:47:45.012Z,0.50
2023-12-22T21:50:48.636Z,0.20
2023-12-22T21:53:50.855Z,0.60
2023-12-22T21:56:54.402Z,0.40
2023-12-22T21:59:56.830Z,0.68
2023-12-22T22:02:58.972Z,0.80
2023-12-22T22:06:01.641Z,0.60
2023-12-22T22:09:04.283Z,0.60
2023-12-22T22:12:06.899Z,0.50
2023-12-22T22:15:09.732Z,0.57
2023-12-22T22:18:12.257Z,0.70
2023-12-22T22:21:14.708Z,0.77
2023-12-22T22:24:16.922Z,0.40
2023-12-22T22:27:19.171Z,0.52
2023-12-22T22:30:23.431Z,0.30
2023-12-22T22:33:25.904Z,1.10
2023-12-22T22:36:28.409Z,0.93
2023-12-22T22:39:31.676Z,0.40
2023-12-22T22:42:34.323Z,1.00
2023-12-22T22:45:36.801Z,1.15
2023-12-22T22:48:39.616Z,0.70
2023-12-22T22:51:42.083Z,0.90
2023-12-22T22:54:44.625Z,1.03
2023-12-22T22:57:47.150Z,0.47
2023-12-22T23:00:49.577Z,0.40
2023-12-22T23:03:54.493Z,0.80
2023-12-22T23:07:01.425Z,0.53
2023-12-22T23:10:04.599Z,0.27
2023-12-22T23:13:07.110Z,0.70
2023-12-22T23:16:09.456Z,0.68
2023-12-22T23:19:12.029Z,0.20
2023-12-22T23:22:14.625Z,0.50
2023-12-22T23:25:17.155Z,0.60
2023-12-22T23:28:19.591Z,0.43
2023-12-22T23:31:22.025Z,0.28
2023-12-22T23:34:24.506Z,0.50
2023-12-22T23:37:26.994Z,0.40
2023-12-22T23:40:29.215Z,0.70
2023-12-22T23:43:31.757Z,0.80
2023-12-22T23:46:34.250Z,0.50
2023-12-22T23:49:36.526Z,0.70
2023-12-22T23:52:39.139Z,0.97
2023-12-22T23:55:41.466Z,0.87
2023-12-22T23:58:43.996Z,0.73
